Terminal Aerodrome Forecast
Issued by NWS

Home | Current Version | Previous Version | Text Only | Print | Product List | Glossary On
Versions: 1 2 3 4 5 6 7 8 9 10 11 12 13 14 15 16 17 18 19 20 21 22 23 24 25 26 27 28 29
000
FTUS45 KBOU 250131 AAA
TAFBJC
TAF AMD
KBJC 250131Z 2502/2524 27018G32KT P6SM BKN100 BKN150
     FM250400 26014G26KT P6SM SCT120 BKN150
     FM250800 31009KT P6SM FEW120 BKN220
     FM251500 VRB05KT P6SM FEW120 SCT220
     FM251900 28008KT P6SM FEW120 SCT220=

USA.gov is the U.S. government's official web portal to all federal, state and local government web resources and services.